Time;durP1;ratioP1;P1;durP2;ratioP2;P2;SDS_P1;SDS_P2;PMS_P1;PMS_P2;Temp;Humidity;BMP_temperature;BMP_pressure;BME280_temperature;BME280_humidity;BME280_pressure;Samples;Min_cycle;Max_cycle;Signal;HPM_P1;HPM_P2
2024/01/08 00:00:52;;;;;;;;;26.00;19.00;;;;;3.04;59.95;102182.09;4978833;28;45780;-42
2024/01/08 00:03:17;;;;;;;;;26.00;25.00;;;;;3.04;59.19;102182.09;4977968;28;45477;-42
2024/01/08 00:05:43;;;;;;;;;27.75;21.75;;;;;2.99;59.34;102181.41;4978358;28;45957;-42
2024/01/08 00:08:09;;;;;;;;;23.75;21.25;;;;;2.97;58.39;102185.88;4978334;28;45449;-43
2024/01/08 00:10:36;;;;;;;;;29.25;23.00;;;;;2.92;59.65;102188.69;4978578;28;45316;-42
2024/01/08 00:13:02;;;;;;;;;39.50;26.75;;;;;2.89;58.38;102182.72;4978197;28;47279;-43
2024/01/08 00:15:27;;;;;;;;;36.50;26.75;;;;;2.88;58.87;102194.16;4977839;28;45379;-43
2024/01/08 00:17:53;;;;;;;;;29.75;26.25;;;;;2.86;58.96;102191.56;4978234;28;45268;-43
2024/01/08 00:20:18;;;;;;;;;33.25;23.00;;;;;2.83;58.33;102185.59;4978496;28;45405;-43
2024/01/08 00:22:43;;;;;;;;;26.00;22.50;;;;;2.77;58.75;102177.94;4977641;28;52026;-42
2024/01/08 00:25:08;;;;;;;;;30.00;22.50;;;;;2.83;58.47;102193.47;4977771;28;49436;-42
2024/01/08 00:27:34;;;;;;;;;36.75;25.50;;;;;2.81;59.06;102196.16;4978089;28;45299;-44
2024/01/08 00:29:59;;;;;;;;;26.25;21.75;;;;;2.81;58.70;102193.53;4977953;28;45240;-42
2024/01/08 00:32:25;;;;;;;;;25.50;23.50;;;;;2.80;57.87;102193.59;4977795;28;46066;-42
2024/01/08 00:34:50;;;;;;;;;30.25;20.75;;;;;2.72;58.72;102183.38;4978107;28;45445;-41
2024/01/08 00:37:15;;;;;;;;;24.25;19.50;;;;;2.74;59.00;102182.41;4977759;28;45412;-42
2024/01/08 00:39:41;;;;;;;;;20.75;14.75;;;;;2.80;59.31;102193.59;4977920;28;46447;-44
2024/01/08 00:42:06;;;;;;;;;16.25;13.00;;;;;2.73;58.72;102185.09;4977430;28;45406;-42
2024/01/08 00:44:31;;;;;;;;;26.00;17.25;;;;;2.71;58.23;102193.03;4977579;28;45577;-42
2024/01/08 00:46:57;;;;;;;;;22.75;20.25;;;;;2.72;58.19;102196.53;4977727;28;45350;-42
2024/01/08 00:49:22;;;;;;;;;36.25;27.00;;;;;2.73;58.13;102200.84;4978108;28;45364;-44
2024/01/08 00:51:47;;;;;;;;;28.50;22.00;;;;;2.71;57.79;102195.66;4977561;28;46200;-43
2024/01/08 00:54:13;;;;;;;;;33.25;25.00;;;;;2.74;57.87;102198.19;4977748;28;45362;-43
2024/01/08 00:56:38;;;;;;;;;22.50;18.25;;;;;2.73;58.60;102200.84;4977610;28;45287;-42
2024/01/08 00:59:03;;;;;;;;;26.75;24.25;;;;;2.70;57.85;102201.00;4977802;28;45332;-42
2024/01/08 01:01:29;;;;;;;;;22.25;19.75;;;;;2.67;57.76;102193.22;4977224;28;46969;-41
2024/01/08 01:03:54;;;;;;;;;27.00;22.50;;;;;2.62;57.30;102193.41;4977321;28;45926;-42
2024/01/08 01:06:22;;;;;;;;;22.75;19.00;;;;;2.64;57.68;102188.09;4977762;28;45389;-43
2024/01/08 01:08:47;;;;;;;;;28.75;22.25;;;;;2.61;56.90;102186.44;4977790;28;45346;-42
2024/01/08 01:11:14;;;;;;;;;26.50;21.00;;;;;2.64;57.69;102182.81;4977319;28;46072;-42
2024/01/08 01:13:39;;;;;;;;;33.50;24.25;;;;;2.63;57.72;102192.47;4977534;28;45342;-42
2024/01/08 01:16:05;;;;;;;;;31.00;22.75;;;;;2.66;57.36;102191.53;4977261;28;45433;-41
2024/01/08 01:18:31;;;;;;;;;28.00;23.75;;;;;2.65;56.98;102195.03;4977403;28;45276;-42
2024/01/08 01:20:56;;;;;;;;;31.75;22.50;;;;;2.65;57.59;102181.91;4977111;28;45352;-43
2024/01/08 01:23:21;;;;;;;;;28.25;22.00;;;;;2.60;57.31;102187.34;4977160;28;45447;-43
2024/01/08 01:25:47;;;;;;;;;22.00;21.00;;;;;2.65;57.02;102195.88;4976962;28;45389;-42
2024/01/08 01:28:12;;;;;;;;;25.25;23.50;;;;;2.64;57.69;102188.94;4977363;28;45422;-50
2024/01/08 01:30:37;;;;;;;;;31.75;24.00;;;;;2.63;57.94;102189.84;4977010;28;46068;-44
2024/01/08 01:33:03;;;;;;;;;23.25;21.50;;;;;2.66;57.68;102188.91;4977091;28;45402;-45
2024/01/08 01:35:28;;;;;;;;;27.00;18.50;;;;;2.61;57.98;102193.44;4977175;28;45370;-42
2024/01/08 01:37:53;;;;;;;;;26.00;16.00;;;;;2.62;57.33;102200.44;4977417;28;45567;-41
2024/01/08 01:40:19;;;;;;;;;21.75;14.00;;;;;2.60;57.48;102189.97;4976760;28;45385;-42
2024/01/08 01:42:48;;;;;;;;;24.75;14.50;;;;;2.57;57.29;102208.50;4976770;28;45348;-42
2024/01/08 01:45:14;;;;;;;;;22.75;16.25;;;;;2.55;56.37;102204.22;4976703;28;45556;-43
2024/01/08 01:47:39;;;;;;;;;14.00;11.75;;;;;2.55;57.33;102207.69;4977168;28;45323;-42
2024/01/08 01:50:07;;;;;;;;;11.75;11.00;;;;;2.52;57.52;102217.44;4976813;28;46462;-42
2024/01/08 01:52:33;;;;;;;;;23.25;13.00;;;;;2.47;57.05;102213.22;4975994;28;45314;-42
2024/01/08 01:54:59;;;;;;;;;14.50;12.25;;;;;2.38;55.89;102203.06;4976902;28;45327;-42
2024/01/08 01:57:25;;;;;;;;;27.00;22.50;;;;;2.29;55.66;102187.69;4976856;28;45434;-42
2024/01/08 01:59:50;;;;;;;;;16.50;11.75;;;;;2.37;57.14;102211.88;4976670;28;47141;-42
2024/01/08 02:02:16;;;;;;;;;16.50;12.50;;;;;2.27;56.81;102193.88;4976597;28;45386;-44
2024/01/08 02:04:43;;;;;;;;;22.25;13.00;;;;;2.33;55.74;102219.94;4976702;28;45468;-42
2024/01/08 02:07:09;;;;;;;;;51.00;41.75;;;;;2.17;55.90;102193.38;4976863;28;45431;-43
2024/01/08 02:09:35;;;;;;;;;11.00;9.25;;;;;2.15;56.11;102195.19;4991709;28;47943;-45
2024/01/08 02:12:01;;;;;;;;;10.00;10.00;;;;;2.31;57.03;102214.72;4976751;28;45201;-43
2024/01/08 02:14:27;;;;;;;;;11.75;7.75;;;;;2.27;55.94;102205.25;4976824;28;45475;-43
2024/01/08 02:16:52;;;;;;;;;10.00;10.00;;;;;2.27;56.02;102212.28;4976670;28;45379;-42
2024/01/08 02:19:17;;;;;;;;;7.50;7.00;;;;;2.24;56.55;102219.38;4976260;28;47023;-43
2024/01/08 02:21:43;;;;;;;;;16.00;10.25;;;;;2.19;55.86;102221.31;4976561;28;45296;-43
2024/01/08 02:24:08;;;;;;;;;10.50;10.50;;;;;2.16;55.91;102212.69;4976519;28;45685;-43
2024/01/08 02:26:36;;;;;;;;;14.75;12.50;;;;;2.19;55.64;102208.19;4976623;28;45371;-43
2024/01/08 02:29:01;;;;;;;;;9.00;9.00;;;;;2.24;56.05;102211.47;4976322;28;45391;-42
2024/01/08 02:31:28;;;;;;;;;17.50;11.50;;;;;2.26;56.18;102214.03;4976323;28;45295;-42
2024/01/08 02:33:53;;;;;;;;;13.50;9.25;;;;;2.24;55.99;102214.13;4976346;28;45243;-41
2024/01/08 02:36:19;;;;;;;;;9.75;8.25;;;;;2.27;56.44;102221.00;4975412;28;45445;-50
2024/01/08 02:38:44;;;;;;;;;10.50;8.25;;;;;2.28;56.29;102219.25;4976238;28;46121;-43
2024/01/08 02:41:09;;;;;;;;;14.75;9.00;;;;;2.27;56.18;102215.75;4976063;28;45248;-41
2024/01/08 02:43:35;;;;;;;;;10.00;8.75;;;;;2.27;55.92;102217.53;4976291;28;45389;-42
2024/01/08 02:46:00;;;;;;;;;5.00;3.00;;;;;2.25;56.25;102215.81;4976441;28;45349;-41
2024/01/08 02:48:25;;;;;;;;;8.50;8.50;;;;;2.25;55.99;102213.19;4976208;28;45399;-42
2024/01/08 02:50:51;;;;;;;;;13.75;9.00;;;;;2.24;55.62;102213.25;4976320;28;45180;-42
2024/01/08 02:53:16;;;;;;;;;7.50;7.50;;;;;2.24;55.69;102221.13;4976144;28;45402;-43
2024/01/08 02:55:41;;;;;;;;;13.25;6.75;;;;;2.21;55.60;102210.75;4976258;28;45468;-42
2024/01/08 02:58:07;;;;;;;;;9.25;6.25;;;;;2.24;56.01;102222.00;4975773;28;50356;-42
2024/01/08 03:00:33;;;;;;;;;13.00;9.00;;;;;2.23;56.16;102214.16;4974457;28;45327;-42
2024/01/08 03:02:58;;;;;;;;;9.50;9.50;;;;;2.23;55.17;102212.41;4975989;28;45535;-45
2024/01/08 03:05:23;;;;;;;;;15.25;11.50;;;;;2.24;55.83;102221.13;4979531;28;45506;-42
2024/01/08 03:07:49;;;;;;;;;9.50;7.25;;;;;2.23;56.06;102209.78;4979072;28;50515;-41
2024/01/08 03:10:14;;;;;;;;;17.75;12.50;;;;;2.26;55.73;102219.28;4979217;28;45382;-43
2024/01/08 03:12:39;;;;;;;;;18.50;13.25;;;;;2.26;55.65;102219.28;4979324;28;45299;-43
2024/01/08 03:15:05;;;;;;;;;15.00;12.50;;;;;2.29;55.64;102223.59;4979548;28;45370;-42
2024/01/08 03:17:30;;;;;;;;;14.75;12.50;;;;;2.30;55.97;102212.16;4978925;28;46054;-42
2024/01/08 03:19:56;;;;;;;;;21.50;15.75;;;;;2.32;56.06;102218.19;4979242;28;45368;-48
2024/01/08 03:22:21;;;;;;;;;12.75;9.50;;;;;2.34;56.28;102216.38;4979392;28;45256;-42
2024/01/08 03:24:47;;;;;;;;;20.75;14.75;;;;;2.31;55.67;102225.22;4979628;28;45343;-43
2024/01/08 03:27:12;;;;;;;;;21.25;14.50;;;;;2.30;56.38;102209.53;4978996;28;46216;-43
2024/01/08 03:29:38;;;;;;;;;20.00;11.50;;;;;2.31;55.95;102221.75;4977546;28;45473;-42
2024/01/08 03:32:03;;;;;;;;;16.00;11.00;;;;;2.31;56.39;102206.84;4978928;28;45176;-41
2024/01/08 03:34:29;;;;;;;;;15.00;8.75;;;;;2.30;56.78;102214.78;4979201;28;45320;-47
2024/01/08 03:36:54;;;;;;;;;13.25;11.50;;;;;2.27;56.19;102226.25;4978869;28;45381;-42
2024/01/08 03:39:19;;;;;;;;;18.75;14.00;;;;;2.24;55.92;102218.50;4978768;28;45352;-43
2024/01/08 03:41:45;;;;;;;;;6.25;4.00;;;;;2.18;56.17;102222.19;4978962;28;45220;-44
2024/01/08 03:44:10;;;;;;;;;14.50;13.25;;;;;2.16;56.50;102228.44;4978936;28;45306;-43
2024/01/08 03:46:36;;;;;;;;;23.25;17.75;;;;;2.14;56.10;102225.84;4978663;28;46349;-43
2024/01/08 03:49:03;;;;;;;;;16.25;14.00;;;;;2.15;56.79;102219.72;4978667;28;45387;-44
2024/01/08 03:51:28;;;;;;;;;19.50;16.25;;;;;2.14;56.74;102217.97;4978618;28;45310;-42
2024/01/08 03:53:54;;;;;;;;;17.00;11.00;;;;;2.16;57.31;102218.78;4978908;28;45344;-44
2024/01/08 03:56:19;;;;;;;;;19.00;13.00;;;;;2.17;56.94;102223.13;4978641;28;45472;-42
2024/01/08 03:58:44;;;;;;;;;13.00;10.25;;;;;2.18;57.23;102223.97;4978652;28;45459;-45
2024/01/08 04:01:11;;;;;;;;;18.00;12.50;;;;;2.18;57.22;102235.31;4978340;28;45384;-43
2024/01/08 04:03:37;;;;;;;;;19.75;16.50;;;;;2.17;57.04;102236.25;4978656;28;45271;-43
2024/01/08 04:06:02;;;;;;;;;22.00;16.50;;;;;2.12;56.71;102256.56;4978440;28;45354;-44
2024/01/08 04:08:27;;;;;;;;;10.75;9.00;;;;;2.07;57.18;102228.78;4978411;28;45327;-43
2024/01/08 04:10:53;;;;;;;;;13.00;11.25;;;;;2.08;56.51;102243.59;4978290;28;45383;-43
2024/01/08 04:13:18;;;;;;;;;14.75;13.00;;;;;2.07;56.27;102237.50;4978421;28;45477;-43
2024/01/08 04:15:43;;;;;;;;;16.50;11.50;;;;;2.06;57.20;102248.91;4977385;28;47145;-43
2024/01/08 04:18:09;;;;;;;;;11.25;11.25;;;;;2.06;56.60;102243.63;4978104;28;45239;-43
2024/01/08 04:20:34;;;;;;;;;11.50;11.50;;;;;2.06;56.07;102243.63;4978423;28;45385;-42
2024/01/08 04:22:59;;;;;;;;;16.75;12.00;;;;;2.06;56.73;102248.03;4978163;28;45232;-43
2024/01/08 04:25:24;;;;;;;;;15.25;15.25;;;;;2.06;56.40;102248.91;4978123;28;45344;-46
2024/01/08 04:27:50;;;;;;;;;15.75;12.00;;;;;2.04;56.30;102248.09;4978440;28;45984;-45
2024/01/08 04:30:15;;;;;;;;;16.50;11.25;;;;;2.03;56.24;102254.28;4978185;28;45169;-48
2024/01/08 04:32:40;;;;;;;;;15.25;13.00;;;;;2.03;56.20;102253.41;4978457;28;45190;-42
2024/01/08 04:35:06;;;;;;;;;15.75;13.50;;;;;1.99;55.74;102257.91;4977880;28;46199;-43
2024/01/08 04:37:31;;;;;;;;;14.75;12.75;;;;;1.98;56.70;102254.44;4977846;28;45465;-43
2024/01/08 04:39:57;;;;;;;;;15.25;13.50;;;;;1.98;56.19;102257.06;4977643;28;45729;-44
2024/01/08 04:42:22;;;;;;;;;20.25;14.75;;;;;1.97;55.59;102254.47;4977972;28;45454;-43
2024/01/08 04:44:47;;;;;;;;;11.25;11.25;;;;;1.97;56.38;102252.69;4977686;28;45438;-43
2024/01/08 04:47:13;;;;;;;;;16.00;13.50;;;;;1.87;55.78;102253.09;4977434;28;45432;-43
2024/01/08 04:49:39;;;;;;;;;16.75;13.00;;;;;1.87;56.16;102242.59;4977714;28;45425;-44
2024/01/08 04:52:05;;;;;;;;;16.00;11.00;;;;;1.92;56.08;102266.91;4977662;28;45395;-44
2024/01/08 04:54:30;;;;;;;;;18.75;14.00;;;;;1.84;55.60;102251.44;4977438;28;45354;-42
2024/01/08 04:56:56;;;;;;;;;19.00;11.25;;;;;1.90;56.08;102253.84;4977607;28;45480;-42
2024/01/08 04:59:22;;;;;;;;;18.25;12.00;;;;;1.85;56.05;102239.16;4977794;28;45322;-46
2024/01/08 05:01:49;;;;;;;;;18.75;12.75;;;;;1.89;55.79;102259.13;4977789;28;45265;-41
2024/01/08 05:04:14;;;;;;;;;21.00;15.00;;;;;1.87;56.02;102261.81;4977423;28;46555;-43
2024/01/08 05:06:39;;;;;;;;;18.25;15.00;;;;;1.85;55.92;102254.91;4977550;28;45292;-42
2024/01/08 05:09:05;;;;;;;;;21.00;17.00;;;;;1.83;55.23;102256.75;4977706;28;45264;-42
2024/01/08 05:11:30;;;;;;;;;21.50;12.00;;;;;1.81;55.86;102251.53;4977657;28;45422;-41
2024/01/08 05:13:55;;;;;;;;;18.75;13.00;;;;;1.59;55.83;102219.94;4977292;28;46164;-42
2024/01/08 05:16:21;;;;;;;;;18.00;15.00;;;;;1.79;55.78;102255.13;4977426;28;45439;-43
2024/01/08 05:18:46;;;;;;;;;12.75;11.00;;;;;1.77;55.88;102267.44;4977272;28;46401;-42
2024/01/08 05:21:15;;;;;;;;;15.75;11.75;;;;;1.74;55.17;102263.16;4977661;28;45473;-42
2024/01/08 05:23:40;;;;;;;;;17.50;13.50;;;;;1.67;55.53;102244.13;4977014;28;46296;-44
2024/01/08 05:26:06;;;;;;;;;18.25;13.25;;;;;1.64;55.70;102248.63;4977078;28;45335;-42
2024/01/08 05:28:32;;;;;;;;;12.75;10.00;;;;;1.64;55.80;102267.00;4977310;28;45383;-42
2024/01/08 05:30:58;;;;;;;;;17.50;14.75;;;;;1.61;55.57;102262.72;4977252;28;45402;-42
2024/01/08 05:33:23;;;;;;;;;17.25;14.00;;;;;1.63;56.07;102263.50;4977067;28;45478;-42
2024/01/08 05:35:48;;;;;;;;;16.50;12.25;;;;;1.61;55.54;102260.09;4976819;28;45663;-42
2024/01/08 05:38:14;;;;;;;;;14.75;12.75;;;;;1.54;55.33;102242.84;4977075;28;45446;-43
2024/01/08 05:40:39;;;;;;;;;15.75;12.25;;;;;1.64;55.09;102261.75;4975995;28;45344;-44
2024/01/08 05:43:05;;;;;;;;;16.00;13.00;;;;;1.64;55.73;102267.84;4976699;28;45458;-42
2024/01/08 05:45:31;;;;;;;;;18.00;15.25;;;;;1.65;55.96;102276.59;4976912;28;45308;-42
2024/01/08 05:47:57;;;;;;;;;9.25;9.00;;;;;1.61;55.62;102267.13;4977055;28;45330;-43
2024/01/08 05:50:27;;;;;;;;;20.00;18.25;;;;;1.64;55.00;102270.47;4977136;28;45382;-42
2024/01/08 05:52:54;;;;;;;;;19.00;18.00;;;;;1.65;55.34;102279.22;4976759;28;47001;-42
2024/01/08 05:55:20;;;;;;;;;19.50;18.00;;;;;1.59;55.49;102263.66;4976493;28;45224;-43
2024/01/08 05:57:45;;;;;;;;;25.25;18.75;;;;;1.62;55.03;102261.81;4976610;28;45243;-42
2024/01/08 06:00:11;;;;;;;;;17.75;16.50;;;;;1.66;55.40;102271.28;4976735;28;45403;-45
2024/01/08 06:02:37;;;;;;;;;15.75;13.00;;;;;1.67;55.29;102259.88;4976226;28;45570;-45
2024/01/08 06:05:02;;;;;;;;;22.00;15.75;;;;;1.67;55.54;102266.91;4976445;28;45367;-42
2024/01/08 06:07:27;;;;;;;;;22.75;14.50;;;;;1.62;55.53;102260.94;4976821;28;45383;-44
2024/01/08 06:09:53;;;;;;;;;22.25;13.75;;;;;1.68;55.50;102276.47;4977127;28;45357;-42
2024/01/08 06:12:18;;;;;;;;;16.50;13.00;;;;;1.70;55.17;102280.78;4976383;28;45467;-42
2024/01/08 06:14:43;;;;;;;;;21.75;15.25;;;;;1.69;54.80;102271.19;4976414;28;47908;-45
2024/01/08 06:17:10;;;;;;;;;13.50;12.75;;;;;1.68;55.30;102277.31;4976346;28;45451;-42
2024/01/08 06:19:36;;;;;;;;;16.25;15.50;;;;;1.64;54.60;102280.97;4976854;28;46041;-43
2024/01/08 06:22:02;;;;;;;;;20.50;15.75;;;;;1.59;54.96;102272.41;4976469;28;46453;-42
2024/01/08 06:24:27;;;;;;;;;22.75;17.00;;;;;1.56;54.85;102269.91;4976358;28;45354;-43
2024/01/08 06:26:52;;;;;;;;;22.00;18.00;;;;;1.54;54.96;102276.09;4976652;28;45436;-42
2024/01/08 06:29:18;;;;;;;;;19.00;12.25;;;;;1.55;55.38;102273.41;4976767;28;45362;-42
2024/01/08 06:31:45;;;;;;;;;25.50;16.75;;;;;1.48;55.25;102256.19;4976266;28;47323;-43
2024/01/08 06:34:10;;;;;;;;;17.50;13.50;;;;;1.61;55.43;102285.47;4976330;28;45370;-43
2024/01/08 06:36:35;;;;;;;;;16.75;12.00;;;;;1.63;55.57;102292.38;4976416;28;45358;-42
2024/01/08 06:39:01;;;;;;;;;15.50;11.50;;;;;1.58;55.00;102289.06;4977856;28;45400;-43
2024/01/08 06:41:26;;;;;;;;;17.75;10.25;;;;;1.56;54.99;102283.00;4979636;28;45413;-43
2024/01/08 06:43:52;;;;;;;;;18.25;12.00;;;;;1.54;55.00;102284.81;4979674;28;45231;-43
2024/01/08 06:46:18;;;;;;;;;27.75;22.50;;;;;1.53;54.46;102296.22;4979644;28;45369;-43
2024/01/08 06:48:43;;;;;;;;;13.25;11.50;;;;;1.40;54.88;102272.16;4979673;28;45394;-42
2024/01/08 06:51:11;;;;;;;;;28.75;17.50;;;;;1.53;54.87;102293.59;4979240;28;49251;-43
2024/01/08 06:53:36;;;;;;;;;17.50;11.50;;;;;1.47;55.34;102280.66;4979381;28;45421;-41
2024/01/08 06:56:02;;;;;;;;;16.00;10.00;;;;;1.45;54.60;102288.59;4979683;28;45524;-42
2024/01/08 06:58:27;;;;;;;;;15.75;12.25;;;;;1.39;55.04;102291.44;4979726;28;45259;-42
2024/01/08 07:00:52;;;;;;;;;23.25;19.00;;;;;1.37;54.82;102290.59;4979411;28;45322;-42
2024/01/08 07:03:18;;;;;;;;;16.50;15.00;;;;;1.35;55.15;102287.19;4979084;28;45406;-41
2024/01/08 07:05:43;;;;;;;;;18.50;15.25;;;;;1.36;54.40;102285.44;4979500;28;45361;-42
2024/01/08 07:08:09;;;;;;;;;16.50;14.00;;;;;1.35;54.63;102283.69;4979570;28;45356;-42
2024/01/08 07:10:34;;;;;;;;;24.25;17.75;;;;;1.35;54.22;102292.44;4979190;28;46054;-42
2024/01/08 07:13:00;;;;;;;;;17.25;14.00;;;;;1.35;54.85;102287.19;4979060;28;45413;-42
2024/01/08 07:15:36;;;;;;;;;18.50;14.00;;;;;1.37;55.09;102287.13;4979261;28;45464;-42
2024/01/08 07:18:02;;;;;;;;;13.00;10.00;;;;;1.37;54.98;102284.50;4979349;28;45689;-42
2024/01/08 07:20:27;;;;;;;;;24.00;16.50;;;;;1.35;55.13;102281.06;4971009;28;47470;-41
2024/01/08 07:22:53;;;;;;;;;27.75;15.00;;;;;1.36;54.77;102275.78;4974421;28;45505;-41
2024/01/08 07:25:18;;;;;;;;;16.75;12.75;;;;;1.38;55.03;102275.72;4976530;28;45422;-41
2024/01/08 07:27:43;;;;;;;;;26.75;20.50;;;;;1.40;55.26;102281.81;4976305;28;45525;-42
2024/01/08 07:30:09;;;;;;;;;19.50;16.00;;;;;1.44;55.46;102278.16;4975613;28;46048;-43
2024/01/08 07:32:35;;;;;;;;;16.25;15.00;;;;;1.45;55.84;102287.75;4975462;28;45402;-42
2024/01/08 07:35:02;;;;;;;;;29.75;19.50;;;;;1.47;55.78;102276.28;4975557;28;45478;-42
2024/01/08 07:37:27;;;;;;;;;22.00;18.00;;;;;1.49;56.10;102278.88;4975909;28;45556;-42
2024/01/08 07:39:52;;;;;;;;;18.00;11.00;;;;;1.54;56.30;102283.97;4975399;28;45559;-42
2024/01/08 07:42:18;;;;;;;;;24.25;19.50;;;;;1.56;56.27;102285.63;4975761;28;45496;-41
2024/01/08 07:44:43;;;;;;;;;20.50;17.75;;;;;1.56;56.55;102285.63;4975574;28;45446;-42
2024/01/08 07:47:08;;;;;;;;;21.50;17.00;;;;;1.57;56.60;102284.72;4975454;28;45504;-42
2024/01/08 07:49:33;;;;;;;;;21.50;16.00;;;;;1.57;56.52;102286.50;4974584;28;45937;-42
2024/01/08 07:51:59;;;;;;;;;26.25;12.50;;;;;1.59;56.71;102282.03;4971741;28;45550;-45
2024/01/08 07:54:24;;;;;;;;;25.75;16.00;;;;;1.58;56.55;102289.06;4975731;28;45419;-42
2024/01/08 07:56:50;;;;;;;;;29.75;21.75;;;;;1.57;56.74;102286.50;4977390;28;45383;-42
2024/01/08 07:59:15;;;;;;;;;33.50;21.75;;;;;1.55;56.51;102283.03;4975800;28;45935;-41
2024/01/08 08:01:44;;;;;;;;;31.75;21.25;;;;;1.56;57.29;102290.88;4976398;28;45441;-43
2024/01/08 08:04:10;;;;;;;;;30.50;21.00;;;;;1.58;57.06;102293.44;4975585;28;45412;-41
2024/01/08 08:06:37;;;;;;;;;24.50;20.00;;;;;1.56;57.09;102296.13;4975783;28;45322;-43
2024/01/08 08:09:03;;;;;;;;;17.50;14.00;;;;;1.58;56.80;102296.91;4975249;28;52956;-49
2024/01/08 08:11:28;;;;;;;;;21.50;17.00;;;;;1.43;56.98;102285.19;4972968;28;46134;-48
2024/01/08 08:13:53;;;;;;;;;13.50;11.75;;;;;1.57;56.82;102296.97;4976004;28;45518;-53
2024/01/08 08:16:20;;;;;;;;;19.50;16.00;;;;;1.59;56.54;102300.41;4975996;28;45407;-56
2024/01/08 08:18:45;;;;;;;;;25.00;21.00;;;;;1.58;56.52;102302.16;4972096;28;45564;-42
2024/01/08 08:21:11;;;;;;;;;26.50;17.00;;;;;1.60;56.78;102296.84;4973142;28;45465;-44
2024/01/08 08:23:36;;;;;;;;;19.75;15.00;;;;;1.57;56.59;102297.84;4975717;28;45940;-43
2024/01/08 08:26:02;;;;;;;;;18.50;13.50;;;;;1.56;56.31;102296.13;4974591;28;45524;-44
2024/01/08 08:28:28;;;;;;;;;20.50;16.00;;;;;1.54;55.87;102297.94;4975708;28;46405;-42
2024/01/08 08:30:55;;;;;;;;;21.50;18.25;;;;;1.54;55.87;102308.41;4975633;28;45544;-54
2024/01/08 08:33:20;;;;;;;;;16.00;16.00;;;;;1.50;55.91;102302.41;4975700;28;45483;-42
2024/01/08 08:35:45;;;;;;;;;20.50;16.50;;;;;1.52;55.68;102301.50;4971126;28;45361;-42
2024/01/08 08:38:12;;;;;;;;;20.00;12.00;;;;;1.56;55.56;102317.09;4968043;28;45996;-42
2024/01/08 08:40:38;;;;;;;;;23.25;15.25;;;;;1.54;55.01;102312.81;4975988;28;45437;-44
2024/01/08 08:43:03;;;;;;;;;24.00;19.50;;;;;1.52;55.29;102317.22;4975902;28;45900;-43
2024/01/08 08:45:28;;;;;;;;;12.25;9.75;;;;;1.54;55.92;102312.81;4976355;28;45564;-41
2024/01/08 08:47:54;;;;;;;;;15.50;12.00;;;;;1.52;55.79;102318.13;4975997;28;46117;-44
2024/01/08 08:50:19;;;;;;;;;18.25;16.00;;;;;1.51;55.28;102324.25;4975960;28;45362;-42
2024/01/08 08:52:45;;;;;;;;;23.50;17.50;;;;;1.46;55.32;102305.19;4975920;28;45603;-42
2024/01/08 08:55:10;;;;;;;;;21.75;12.50;;;;;1.49;55.66;102323.44;4976433;28;45402;-43
2024/01/08 08:57:38;;;;;;;;;25.75;20.00;;;;;1.56;56.01;102331.97;4976361;28;45325;-42
2024/01/08 09:00:07;;;;;;;;;17.25;17.25;;;;;1.57;55.96;102337.19;4976158;28;45501;-43
2024/01/08 09:02:32;;;;;;;;;24.25;16.00;;;;;1.56;56.58;102343.34;4976201;28;45418;-43
2024/01/08 09:04:58;;;;;;;;;17.00;16.00;;;;;1.54;56.41;102342.50;4977758;28;45338;-43
2024/01/08 09:07:23;;;;;;;;;21.00;17.50;;;;;1.47;56.82;102331.34;4977493;28;45388;-41
2024/01/08 09:09:49;;;;;;;;;24.75;18.75;;;;;1.49;57.11;102336.56;4977297;28;45318;-43
2024/01/08 09:12:15;;;;;;;;;18.75;16.25;;;;;1.48;57.47;102353.22;4977422;28;45390;-42
2024/01/08 09:14:41;;;;;;;;;24.50;24.00;;;;;1.42;57.73;102335.88;4977600;28;45522;-43
2024/01/08 09:17:06;;;;;;;;;20.75;15.00;;;;;1.38;57.52;102328.16;4977060;28;47023;-41
2024/01/08 09:19:32;;;;;;;;;16.50;16.50;;;;;1.45;57.46;102350.69;4977126;28;45310;-43
2024/01/08 09:21:57;;;;;;;;;18.25;11.00;;;;;1.41;57.75;102349.06;4977475;28;45407;-42
2024/01/08 09:24:22;;;;;;;;;18.50;15.00;;;;;1.42;57.80;102345.53;4977380;28;45371;-42
2024/01/08 09:26:48;;;;;;;;;26.50;17.00;;;;;1.44;58.27;102348.97;4977315;28;45998;-42
2024/01/08 09:29:13;;;;;;;;;23.25;17.50;;;;;1.49;57.93;102352.31;4976791;28;49580;-43
2024/01/08 09:31:38;;;;;;;;;24.50;21.00;;;;;1.58;58.07;102357.25;4977028;28;45800;-41
2024/01/08 09:34:05;;;;;;;;;15.50;13.00;;;;;1.62;57.28;102345.75;4977295;28;45434;-38
2024/01/08 09:36:31;;;;;;;;;15.75;14.50;;;;;1.69;56.37;102349.91;4976826;28;45532;-36
2024/01/08 09:38:56;;;;;;;;;23.50;21.00;;;;;1.75;56.43;102344.44;4977007;28;45452;-38
2024/01/08 09:41:21;;;;;;;;;23.50;16.50;;;;;1.76;55.82;102345.28;4976840;28;45406;-38
2024/01/08 09:43:47;;;;;;;;;16.50;14.00;;;;;1.77;56.09;102357.53;4977116;28;45366;-38
2024/01/08 09:46:17;;;;;;;;;20.75;13.00;;;;;1.77;54.66;102352.28;4976912;28;45968;-37
2024/01/08 09:48:44;;;;;;;;;19.00;15.00;;;;;1.81;54.86;102348.59;4976800;28;45378;-35
2024/01/08 09:51:09;;;;;;;;;21.50;11.00;;;;;1.81;55.02;102363.50;4976706;28;45321;-39
2024/01/08 09:53:36;;;;;;;;;9.00;9.00;;;;;1.80;54.66;102362.63;4977093;28;45330;-37
2024/01/08 09:56:03;;;;;;;;;13.50;13.00;;;;;1.72;53.84;102338.41;4975401;28;47151;-38
2024/01/08 09:58:28;;;;;;;;;15.00;11.25;;;;;1.84;53.93;102360.78;4976742;28;45368;-38
2024/01/08 10:00:54;;;;;;;;;9.50;9.50;;;;;1.82;54.75;102357.38;4976830;28;45274;-36
2024/01/08 10:03:19;;;;;;;;;15.50;11.75;;;;;1.81;53.01;102353.00;4976763;28;45318;-38
2024/01/08 10:05:45;;;;;;;;;12.50;11.00;;;;;1.86;52.88;102364.22;4976625;28;45252;-37
2024/01/08 10:08:10;;;;;;;;;10.00;9.75;;;;;1.90;53.08;102364.06;4976575;28;45490;-38
2024/01/08 10:10:35;;;;;;;;;12.00;9.50;;;;;1.92;53.82;102351.75;4976787;28;45409;-37
2024/01/08 10:13:01;;;;;;;;;12.25;12.25;;;;;1.95;53.31;102362.16;4976837;28;45331;-37
2024/01/08 10:15:27;;;;;;;;;12.75;7.00;;;;;2.01;52.78;102363.69;4979801;28;46940;-38
2024/01/08 10:17:55;;;;;;;;;7.50;7.50;;;;;1.98;52.79;102348.03;4980159;28;45425;-37
2024/01/08 10:20:20;;;;;;;;;9.75;7.00;;;;;1.89;53.66;102335.22;4979961;28;45788;-38
2024/01/08 10:22:47;;;;;;;;;18.25;13.00;;;;;2.03;52.86;102356.63;4980040;28;45358;-38
2024/01/08 10:25:20;;;;;;;;;13.75;13.75;;;;;2.02;53.41;102351.41;4979781;28;45397;-38
2024/01/08 10:27:46;;;;;;;;;18.00;15.25;;;;;2.04;53.96;102352.25;4979757;28;45471;-37
2024/01/08 10:30:11;;;;;;;;;16.50;12.00;;;;;2.08;54.52;102361.72;4979844;28;45419;-38
2024/01/08 10:32:37;;;;;;;;;12.00;12.00;;;;;2.10;54.39;102355.50;4980075;28;45871;-38
2024/01/08 10:35:04;;;;;;;;;10.75;9.75;;;;;2.09;54.42;102353.78;4979727;28;45430;-38
2024/01/08 10:37:30;;;;;;;;;12.25;10.00;;;;;2.08;54.59;102346.84;4979661;28;45383;-38
2024/01/08 10:39:56;;;;;;;;;15.00;15.00;;;;;2.05;54.77;102343.44;4979652;28;45326;-38
2024/01/08 10:42:22;;;;;;;;;14.50;10.00;;;;;2.03;55.39;102338.25;4979922;28;45474;-37
2024/01/08 10:44:47;;;;;;;;;16.00;13.75;;;;;2.03;55.14;102345.28;4979424;28;45776;-37
2024/01/08 10:47:19;;;;;;;;;19.00;15.00;;;;;2.01;55.82;102345.31;4979373;28;45461;-38
2024/01/08 10:49:55;;;;;;;;;26.25;14.25;;;;;2.09;56.88;102342.44;4979655;28;45410;-38
2024/01/08 10:52:32;;;;;;;;;23.00;16.00;;;;;2.12;56.84;102337.94;4979710;28;45281;-38
2024/01/08 10:55:00;;;;;;;;;27.75;19.00;;;;;2.15;57.17;102332.59;4979357;28;46400;-35
2024/01/08 10:58:00;;;;;;;;;26.75;17.25;;;;;2.19;57.05;102331.56;4979483;28;45358;-39
2024/01/08 11:00:27;;;;;;;;;20.75;14.50;;;;;2.18;57.52;102327.22;4980561;28;45428;-35
2024/01/08 11:02:53;;;;;;;;;14.50;11.75;;;;;2.29;56.97;102323.38;4979651;28;45272;-38
2024/01/08 11:05:21;;;;;;;;;19.25;16.50;;;;;2.27;57.43;102317.28;4978984;28;45457;-38
2024/01/08 11:07:49;;;;;;;;;24.50;18.75;;;;;2.32;57.38;102320.59;4978982;28;45395;-36
2024/01/08 11:10:16;;;;;;;;;21.75;18.00;;;;;2.33;57.57;102324.97;4979064;28;45445;-37
2024/01/08 11:12:41;;;;;;;;;21.75;18.00;;;;;2.36;57.05;102316.97;4979378;28;45318;-37